Time;durP1;ratioP1;P1;durP2;ratioP2;P2;SDS_P1;SDS_P2;PMS_P1;PMS_P2;Temp;Humidity;BMP_temperature;BMP_pressure;BME280_temperature;BME280_humidity;BME280_pressure;Samples;Min_cycle;Max_cycle;Signal;HPM_P1;HPM_P2
2021/05/18 00:01:58;;;;;;;;;;;11.30;97.40;;;;;;5119475;28;20339;-87
2021/05/18 00:04:24;;;;;;;;;;;11.30;97.30;;;;;;5121236;28;19912;-86
2021/05/18 00:06:50;;;;;;;;;;;11.30;97.60;;;;;;5119550;28;19908;-86
2021/05/18 00:12:00;;;;;;;;;;;11.50;97.40;;;;;;5121353;28;19915;-84
2021/05/18 00:14:26;;;;;;;;;;;11.40;97.30;;;;;;5121669;28;19908;-84
2021/05/18 00:16:53;;;;;;;;;;;11.50;97.40;;;;;;5121124;28;19915;-86
2021/05/18 00:19:19;;;;;;;;;;;11.40;97.40;;;;;;5120360;28;20313;-86
2021/05/18 00:21:45;;;;;;;;;;;11.40;97.50;;;;;;5119923;28;19912;-87
2021/05/18 00:24:11;;;;;;;;;;;11.40;97.70;;;;;;5120800;28;20011;-84
2021/05/18 00:26:36;;;;;;;;;;;11.30;98.00;;;;;;5119451;28;19908;-84
2021/05/18 00:29:03;;;;;;;;;;;11.20;98.30;;;;;;5120520;27;19954;-86
2021/05/18 00:31:28;;;;;;;;;;;11.20;98.40;;;;;;5120714;28;19908;-86
2021/05/18 00:33:54;;;;;;;;;;;11.20;98.60;;;;;;5118375;28;19915;-86
2021/05/18 00:36:19;;;;;;;;;;;11.20;98.70;;;;;;5105168;28;20364;-87
2021/05/18 00:38:45;;;;;;;;;;;11.10;98.60;;;;;;5106269;28;19915;-84
2021/05/18 00:41:10;;;;;;;;;;;11.10;98.90;;;;;;5105055;28;19908;-87
2021/05/18 00:43:37;;;;;;;;;;;11.10;98.90;;;;;;5105312;28;20326;-84
2021/05/18 00:46:03;;;;;;;;;;;11.00;99.00;;;;;;5105366;28;19927;-86
2021/05/18 00:48:28;;;;;;;;;;;11.00;99.10;;;;;;5105754;28;19908;-87
2021/05/18 00:50:55;;;;;;;;;;;11.10;99.20;;;;;;5106149;28;19908;-84
2021/05/18 00:53:21;;;;;;;;;;;11.10;99.00;;;;;;5107558;28;20002;-84
2021/05/18 01:01:01;;;;;;;;;;;11.10;99.00;;;;;;5105934;28;20342;-87
2021/05/18 01:03:27;;;;;;;;;;;11.00;99.00;;;;;;5106126;28;19999;-84
2021/05/18 01:08:37;;;;;;;;;;;11.00;99.20;;;;;;5106453;28;19915;-84
2021/05/18 01:11:03;;;;;;;;;;;10.90;99.20;;;;;;5104433;28;19916;-88
2021/05/18 01:13:30;;;;;;;;;;;10.90;99.30;;;;;;5105914;28;19908;-84
2021/05/18 01:15:55;;;;;;;;;;;10.90;99.20;;;;;;5104488;28;19968;-84
2021/05/18 01:18:21;;;;;;;;;;;10.90;99.10;;;;;;5105341;28;19908;-84
2021/05/18 01:20:55;;;;;;;;;;;10.90;99.20;;;;;;5104727;28;19916;-86
2021/05/18 01:23:20;;;;;;;;;;;10.90;99.30;;;;;;5105047;28;20364;-87
2021/05/18 01:25:46;;;;;;;;;;;10.90;99.10;;;;;;5105362;28;19979;-86
2021/05/18 01:28:11;;;;;;;;;;;10.90;99.30;;;;;;5105530;28;19908;-86
2021/05/18 01:30:37;;;;;;;;;;;10.90;99.10;;;;;;5104865;28;19943;-86
2021/05/18 01:33:02;;;;;;;;;;;10.90;99.20;;;;;;5103334;28;20320;-87
2021/05/18 01:35:28;;;;;;;;;;;10.90;99.00;;;;;;5104453;28;19914;-86
2021/05/18 01:37:54;;;;;;;;;;;10.90;99.30;;;;;;5104534;28;19908;-85
2021/05/18 01:42:53;;;;;;;;;;;11.00;99.20;;;;;;5105061;28;19965;-86
2021/05/18 01:45:20;;;;;;;;;;;11.00;98.90;;;;;;5103700;28;19912;-86
2021/05/18 01:47:54;;;;;;;;;;;11.10;98.90;;;;;;5102932;28;19914;-86
2021/05/18 01:50:22;;;;;;;;;;;11.10;99.20;;;;;;5101693;28;19915;-86
2021/05/18 01:52:47;;;;;;;;;;;11.10;99.20;;;;;;5103805;28;20299;-86
2021/05/18 01:55:17;;;;;;;;;;;11.20;99.40;;;;;;5103427;28;19908;-87
2021/05/18 01:57:44;;;;;;;;;;;11.10;99.50;;;;;;5102134;28;19915;-87
2021/05/18 02:00:11;;;;;;;;;;;11.10;99.80;;;;;;5102476;28;19912;-87
2021/05/18 02:02:37;;;;;;;;;;;11.20;99.80;;;;;;5100889;28;19912;-86
2021/05/18 02:05:05;;;;;;;;;;;11.10;99.90;;;;;;5101303;28;20414;-86
2021/05/18 02:07:33;;;;;;;;;;;11.10;99.90;;;;;;5100805;28;19916;-86
2021/05/18 02:09:58;;;;;;;;;;;11.10;99.90;;;;;;5100475;28;20380;-86
2021/05/18 02:12:24;;;;;;;;;;;11.10;99.90;;;;;;5100119;28;19909;-86
2021/05/18 02:14:57;;;;;;;;;;;11.10;99.90;;;;;;5100484;28;19908;-87
2021/05/18 02:25:22;;;;;;;;;;;11.00;99.90;;;;;;5100728;28;19916;-86
2021/05/18 02:27:47;;;;;;;;;;;11.00;99.90;;;;;;5099300;28;19907;-86
2021/05/18 02:30:14;;;;;;;;;;;11.10;99.90;;;;;;5101582;28;19943;-87
2021/05/18 02:32:40;;;;;;;;;;;11.10;99.90;;;;;;5099107;28;19985;-86
2021/05/18 02:35:07;;;;;;;;;;;11.10;99.90;;;;;;5100721;28;20106;-86
2021/05/18 02:37:32;;;;;;;;;;;11.20;99.90;;;;;;5098490;28;19912;-87
2021/05/18 02:39:58;;;;;;;;;;;11.10;99.90;;;;;;5097690;28;20383;-88
2021/05/18 02:42:24;;;;;;;;;;;11.10;99.90;;;;;;5099096;28;19936;-86
2021/05/18 02:49:59;;;;;;;;;;;11.10;99.90;;;;;;5098982;28;19915;-86
2021/05/18 02:52:25;;;;;;;;;;;11.10;99.90;;;;;;5097928;28;20329;-87
2021/05/18 02:54:54;;;;;;;;;;;11.10;99.90;;;;;;5096355;28;19908;-86
2021/05/18 02:57:32;;;;;;;;;;;11.00;99.90;;;;;;5096452;28;19915;-86
2021/05/18 02:59:59;;;;;;;;;;;11.00;99.90;;;;;;5098455;28;19912;-86
2021/05/18 03:02:24;;;;;;;;;;;11.00;99.90;;;;;;5097077;28;19908;-87
2021/05/18 03:04:50;;;;;;;;;;;11.10;99.90;;;;;;5098868;28;20308;-86
2021/05/18 03:07:15;;;;;;;;;;;11.10;99.90;;;;;;5097290;28;19917;-86
2021/05/18 03:09:41;;;;;;;;;;;11.00;99.90;;;;;;5098218;28;19930;-87
2021/05/18 03:12:06;;;;;;;;;;;11.10;99.90;;;;;;5097987;28;19909;-86
2021/05/18 03:14:32;;;;;;;;;;;11.00;99.90;;;;;;5097873;28;19919;-86
2021/05/18 03:16:59;;;;;;;;;;;11.10;99.90;;;;;;5098462;28;19908;-87
2021/05/18 03:19:25;;;;;;;;;;;11.10;99.90;;;;;;5098421;28;19908;-87
2021/05/18 03:21:50;;;;;;;;;;;11.10;99.90;;;;;;5098911;28;20257;-87
2021/05/18 03:24:16;;;;;;;;;;;11.10;99.90;;;;;;5098176;28;19927;-86
2021/05/18 03:26:49;;;;;;;;;;;11.00;99.90;;;;;;5099159;28;19915;-87
2021/05/18 03:29:32;;;;;;;;;;;11.10;99.90;;;;;;5098699;28;19908;-86
2021/05/18 03:34:43;;;;;;;;;;;11.10;99.90;;;;;;5100576;28;19919;-86
2021/05/18 03:37:36;;;;;;;;;;;11.10;99.90;;;;;;5101235;28;19908;-86
2021/05/18 03:40:02;;;;;;;;;;;11.10;99.90;;;;;;5102090;28;19909;-86
2021/05/18 03:42:50;;;;;;;;;;;11.10;99.90;;;;;;5100132;28;19908;-87
2021/05/18 03:45:28;;;;;;;;;;;11.10;99.90;;;;;;5099664;28;19912;-87
2021/05/18 04:04:21;;;;;;;;;;;11.10;99.90;;;;;;5100095;28;19926;-86
2021/05/18 04:18:11;;;;;;;;;;;11.10;99.90;;;;;;5101784;28;19915;-86
2021/05/18 04:20:45;;;;;;;;;;;11.10;99.90;;;;;;5101279;28;19908;-87
2021/05/18 05:00:57;;;;;;;;;;;11.10;99.90;;;;;;5103608;28;20371;-86
2021/05/18 05:17:01;;;;;;;;;;;11.10;99.90;;;;;;5103568;28;19919;-85
2021/05/18 05:19:28;;;;;;;;;;;11.10;99.90;;;;;;5103414;28;19908;-85
2021/05/18 05:21:55;;;;;;;;;;;11.10;99.90;;;;;;5103792;28;19908;-87
2021/05/18 05:24:20;;;;;;;;;;;11.20;99.90;;;;;;5102410;28;19930;-86
2021/05/18 05:26:47;;;;;;;;;;;11.20;99.90;;;;;;5104770;28;20031;-86
2021/05/18 05:29:12;;;;;;;;;;;11.10;99.90;;;;;;5103846;28;19923;-86
2021/05/18 05:31:39;;;;;;;;;;;11.10;99.90;;;;;;5104079;28;19908;-85
2021/05/18 05:34:04;;;;;;;;;;;11.10;99.90;;;;;;5104239;28;19909;-88
2021/05/18 05:36:30;;;;;;;;;;;11.10;99.90;;;;;;5125548;22;19934;-87
2021/05/18 05:39:02;;;;;;;;;;;11.20;99.90;;;;;;5055818;28;20356;-87
2021/05/18 05:41:28;;;;;;;;;;;11.20;99.90;;;;;;5056407;28;19955;-87
2021/05/18 05:43:54;;;;;;;;;;;11.20;99.90;;;;;;5056221;28;19972;-87
2021/05/18 05:46:19;;;;;;;;;;;11.20;99.90;;;;;;5056111;28;19909;-86
2021/05/18 05:48:52;;;;;;;;;;;11.20;99.90;;;;;;5072809;28;19916;-86
2021/05/18 05:51:18;;;;;;;;;;;11.20;99.90;;;;;;5072499;28;20387;-86
2021/05/18 05:53:46;;;;;;;;;;;11.20;99.90;;;;;;5074357;28;19974;-86
2021/05/18 05:56:15;;;;;;;;;;;11.30;99.90;;;;;;5072720;28;19961;-86
2021/05/18 05:58:40;;;;;;;;;;;11.30;99.90;;;;;;5074103;28;19915;-87
2021/05/18 06:01:06;;;;;;;;;;;11.30;99.90;;;;;;5071848;28;19908;-88
2021/05/18 06:03:33;;;;;;;;;;;11.20;99.90;;;;;;5072380;28;19967;-86
2021/05/18 06:05:58;;;;;;;;;;;11.20;99.90;;;;;;5073698;28;19912;-86
2021/05/18 06:08:24;;;;;;;;;;;11.20;99.90;;;;;;5073670;28;19908;-86
2021/05/18 06:10:54;;;;;;;;;;;11.20;99.90;;;;;;5073146;28;20380;-86
2021/05/18 06:48:42;;;;;;;;;;;11.30;99.90;;;;;;5073058;28;20041;-86
2021/05/18 06:51:07;;;;;;;;;;;11.30;99.90;;;;;;5070893;28;19908;-86
2021/05/18 06:53:33;;;;;;;;;;;11.40;99.90;;;;;;5071348;28;20388;-86
2021/05/18 06:55:59;;;;;;;;;;;11.40;99.90;;;;;;5071388;28;19920;-86
2021/05/18 07:01:03;;;;;;;;;;;11.50;99.90;;;;;;5072315;28;19912;-86
2021/05/18 07:03:35;;;;;;;;;;;11.50;99.90;;;;;;5071253;28;20046;-86
2021/05/18 07:06:10;;;;;;;;;;;11.50;99.90;;;;;;5072450;28;20368;-87
2021/05/18 07:11:02;;;;;;;;;;;11.50;99.90;;;;;;5073921;28;20407;-87
2021/05/18 07:13:27;;;;;;;;;;;11.50;99.90;;;;;;5071603;28;19980;-86
2021/05/18 07:15:53;;;;;;;;;;;11.50;99.90;;;;;;5071301;28;19966;-86
2021/05/18 07:18:18;;;;;;;;;;;11.50;99.90;;;;;;5071763;28;19908;-86
2021/05/18 07:20:44;;;;;;;;;;;11.50;99.90;;;;;;5072656;28;19908;-86
2021/05/18 07:23:13;;;;;;;;;;;11.50;99.90;;;;;;5071759;28;19912;-86
2021/05/18 07:25:38;;;;;;;;;;;11.60;99.90;;;;;;5073279;28;20403;-86
2021/05/18 07:28:08;;;;;;;;;;;11.50;99.90;;;;;;5071830;28;20141;-86
2021/05/18 07:30:34;;;;;;;;;;;11.60;99.90;;;;;;5071516;28;19916;-87
2021/05/18 07:33:00;;;;;;;;;;;11.60;99.90;;;;;;5072115;28;19977;-87
2021/05/18 07:35:26;;;;;;;;;;;11.60;99.90;;;;;;5073534;28;20372;-86
2021/05/18 07:37:52;;;;;;;;;;;11.60;99.90;;;;;;5073113;28;19923;-87
2021/05/18 07:40:17;;;;;;;;;;;11.50;99.90;;;;;;5071267;28;20399;-87
2021/05/18 07:42:43;;;;;;;;;;;11.60;99.90;;;;;;5071961;28;19991;-87
2021/05/18 07:45:08;;;;;;;;;;;11.60;99.90;;;;;;5073014;28;19916;-86
2021/05/18 07:47:36;;;;;;;;;;;11.50;99.90;;;;;;5076882;28;19915;-86
2021/05/18 07:50:14;;;;;;;;;;;11.50;99.90;;;;;;5075461;28;19912;-86
2021/05/18 08:06:20;;;;;;;;;;;11.60;99.90;;;;;;5076953;28;19915;-87
2021/05/18 08:08:47;;;;;;;;;;;11.70;99.90;;;;;;5076484;28;19912;-87
2021/05/18 08:11:12;;;;;;;;;;;11.60;99.90;;;;;;5074615;28;19909;-87
2021/05/18 08:13:38;;;;;;;;;;;11.60;99.90;;;;;;5076514;28;19932;-87
2021/05/18 09:33:59;;;;;;;;;;;12.10;99.90;;;;;;5074985;28;19913;-87
2021/05/18 10:21:28;;;;;;;;;;;12.80;98.20;;;;;;5074523;28;19912;-88
2021/05/18 10:34:37;;;;;;;;;;;12.50;96.50;;;;;;5074681;28;19934;-88
2021/05/18 10:37:24;;;;;;;;;;;12.30;96.80;;;;;;5073750;28;19917;-87
2021/05/18 10:40:12;;;;;;;;;;;12.20;97.40;;;;;;5074419;28;19908;-88
2021/05/18 10:42:58;;;;;;;;;;;12.20;97.60;;;;;;5060143;28;19908;-87
2021/05/18 10:45:23;;;;;;;;;;;12.20;97.40;;;;;;5071492;28;19919;-87
2021/05/18 10:47:56;;;;;;;;;;;12.30;97.80;;;;;;5071696;28;20007;-88
2021/05/18 10:50:39;;;;;;;;;;;12.20;97.70;;;;;;5071380;28;19955;-88
2021/05/18 10:53:21;;;;;;;;;;;12.30;96.90;;;;;;5071640;28;19932;-88
2021/05/18 10:56:04;;;;;;;;;;;12.30;97.00;;;;;;5072259;28;20304;-87
2021/05/18 10:58:31;;;;;;;;;;;12.40;97.40;;;;;;5073360;28;20354;-87
2021/05/18 11:00:57;;;;;;;;;;;12.40;96.60;;;;;;5071510;28;20003;-88
2021/05/18 11:03:23;;;;;;;;;;;12.40;96.50;;;;;;5072346;28;19917;-88
2021/05/18 11:05:50;;;;;;;;;;;12.40;96.10;;;;;;5072423;28;20317;-88
2021/05/18 11:08:15;;;;;;;;;;;12.40;96.00;;;;;;5072031;28;19912;-87
2021/05/18 11:10:41;;;;;;;;;;;12.40;95.70;;;;;;5071860;28;19916;-87
2021/05/18 11:13:08;;;;;;;;;;;12.40;96.10;;;;;;5073481;28;19934;-87
2021/05/18 11:15:34;;;;;;;;;;;12.50;96.50;;;;;;5072291;28;19924;-87
2021/05/18 11:17:59;;;;;;;;;;;12.50;96.60;;;;;;5072046;28;19908;-87
2021/05/18 11:20:45;;;;;;;;;;;12.50;95.70;;;;;;5070866;28;20365;-88
2021/05/18 11:23:27;;;;;;;;;;;12.60;95.90;;;;;;5071759;28;20330;-88
2021/05/18 11:26:01;;;;;;;;;;;12.60;95.60;;;;;;5071426;28;19923;-88
2021/05/18 11:28:27;;;;;;;;;;;12.70;95.60;;;;;;5071247;28;19916;-88
2021/05/18 11:31:19;;;;;;;;;;;12.70;95.60;;;;;;5072349;28;19909;-87
2021/05/18 11:33:46;;;;;;;;;;;12.80;95.50;;;;;;5071048;28;19956;-88
2021/05/18 11:36:12;;;;;;;;;;;12.80;96.30;;;;;;5071224;28;19915;-87
2021/05/18 11:38:38;;;;;;;;;;;12.90;96.30;;;;;;5120586;23;19924;-85
2021/05/18 11:41:04;;;;;;;;;;;12.90;95.50;;;;;;5106552;28;20011;-84
2021/05/18 11:43:35;;;;;;;;;;;12.90;96.00;;;;;;5123917;28;19912;-85
2021/05/18 11:46:06;;;;;;;;;;;12.90;95.80;;;;;;5106356;28;19912;-84
2021/05/18 11:48:32;;;;;;;;;;;13.00;95.30;;;;;;5104682;28;19939;-84
2021/05/18 11:51:08;;;;;;;;;;;13.00;95.50;;;;;;5122482;28;19908;-87
2021/05/18 11:53:39;;;;;;;;;;;13.10;95.70;;;;;;5121331;28;19912;-84
2021/05/18 11:56:18;;;;;;;;;;;13.20;95.70;;;;;;5121680;28;19986;-84
2021/05/18 11:58:44;;;;;;;;;;;13.20;95.00;;;;;;5121359;28;19912;-84
2021/05/18 12:01:09;;;;;;;;;;;13.30;95.20;;;;;;5121327;28;19961;-84
2021/05/18 12:03:35;;;;;;;;;;;13.40;95.30;;;;;;5121528;28;19950;-84
2021/05/18 12:06:02;;;;;;;;;;;13.50;93.60;;;;;;5121246;28;19912;-83
2021/05/18 12:08:29;;;;;;;;;;;13.50;93.60;;;;;;5120771;28;19997;-84
2021/05/18 12:10:55;;;;;;;;;;;13.50;93.50;;;;;;5119524;28;19908;-84
2021/05/18 12:13:28;;;;;;;;;;;13.50;94.00;;;;;;5120007;28;20396;-84
2021/05/18 12:16:00;;;;;;;;;;;13.50;94.60;;;;;;5104137;28;19983;-84
2021/05/18 12:18:28;;;;;;;;;;;13.50;95.00;;;;;;5121107;28;19909;-84
2021/05/18 12:20:59;;;;;;;;;;;13.40;95.20;;;;;;5120288;28;20327;-85
2021/05/18 12:23:24;;;;;;;;;;;13.40;95.00;;;;;;5119784;28;19912;-84
2021/05/18 12:25:50;;;;;;;;;;;13.00;97.50;;;;;;5120681;28;19909;-84
2021/05/18 12:28:18;;;;;;;;;;;12.80;97.20;;;;;;5120334;28;19916;-84
2021/05/18 12:30:44;;;;;;;;;;;12.50;95.10;;;;;;5120607;28;19959;-86
2021/05/18 12:33:10;;;;;;;;;;;12.40;95.90;;;;;;5125902;28;19912;-85
2021/05/18 12:35:36;;;;;;;;;;;12.30;96.70;;;;;;5125901;28;19943;-84
2021/05/18 12:38:12;;;;;;;;;;;12.20;96.90;;;;;;5124138;28;19916;-84
2021/05/18 12:40:43;;;;;;;;;;;12.10;95.70;;;;;;5122886;28;19908;-85
2021/05/18 12:43:15;;;;;;;;;;;12.10;96.70;;;;;;5123052;28;19908;-85
2021/05/18 12:45:41;;;;;;;;;;;12.10;97.10;;;;;;5123055;28;19912;-85
2021/05/18 12:48:08;;;;;;;;;;;12.10;96.30;;;;;;5106521;28;19930;-85
2021/05/18 12:50:42;;;;;;;;;;;12.10;95.80;;;;;;5106337;28;19944;-84
2021/05/18 12:53:20;;;;;;;;;;;12.10;96.40;;;;;;5122826;28;20392;-84
2021/05/18 12:55:46;;;;;;;;;;;12.10;95.50;;;;;;5123595;28;20307;-84
2021/05/18 12:58:12;;;;;;;;;;;12.20;95.70;;;;;;5123767;28;20185;-85
2021/05/18 13:00:39;;;;;;;;;;;12.20;96.20;;;;;;5122526;28;20273;-84
2021/05/18 13:03:18;;;;;;;;;;;12.30;95.40;;;;;;5123182;28;19951;-85
2021/05/18 13:05:54;;;;;;;;;;;12.30;95.20;;;;;;5122772;28;20096;-85
2021/05/18 13:08:32;;;;;;;;;;;12.40;95.70;;;;;;5122391;28;19914;-85
2021/05/18 13:13:42;;;;;;;;;;;12.70;95.90;;;;;;5106603;28;19919;-84
2021/05/18 13:16:09;;;;;;;;;;;12.80;94.20;;;;;;5121882;28;19909;-84
2021/05/18 13:18:35;;;;;;;;;;;12.90;93.60;;;;;;5122243;28;19912;-84
2021/05/18 13:21:00;;;;;;;;;;;12.90;93.40;;;;;;5123866;28;19908;-84
2021/05/18 13:28:36;;;;;;;;;;;13.00;92.80;;;;;;5106961;28;19914;-85
2021/05/18 13:31:02;;;;;;;;;;;13.10;93.20;;;;;;5122321;28;20348;-84
2021/05/18 13:33:28;;;;;;;;;;;13.20;92.30;;;;;;5107258;28;19912;-85
2021/05/18 13:35:53;;;;;;;;;;;13.20;92.10;;;;;;5123460;28;19931;-85
2021/05/18 13:38:19;;;;;;;;;;;13.30;92.10;;;;;;5123937;28;19923;-84
2021/05/18 13:40:44;;;;;;;;;;;13.30;91.70;;;;;;5123958;28;19940;-84
2021/05/18 13:43:10;;;;;;;;;;;13.40;92.20;;;;;;5124249;28;20003;-85
2021/05/18 13:45:35;;;;;;;;;;;13.50;91.60;;;;;;5124642;28;19930;-86
2021/05/18 13:48:01;;;;;;;;;;;13.60;91.90;;;;;;5107692;28;20348;-84
2021/05/18 13:50:28;;;;;;;;;;;13.70;91.60;;;;;;5123210;28;19930;-84
2021/05/18 13:52:54;;;;;;;;;;;13.80;92.10;;;;;;5124693;28;19920;-86
2021/05/18 13:55:20;;;;;;;;;;;14.00;91.40;;;;;;5124897;28;20002;-85
2021/05/18 13:57:46;;;;;;;;;;;14.10;91.10;;;;;;5124559;28;19908;-85
2021/05/18 14:00:13;;;;;;;;;;;14.20;91.20;;;;;;5107045;28;19908;-85
2021/05/18 14:02:41;;;;;;;;;;;14.40;91.10;;;;;;5123515;28;19908;-85
2021/05/18 14:05:07;;;;;;;;;;;14.30;90.90;;;;;;5109309;28;19908;-85
2021/05/18 14:10:37;;;;;;;;;;;14.20;90.50;;;;;;5107294;28;19969;-86
2021/05/18 14:13:03;;;;;;;;;;;14.10;90.80;;;;;;5124426;28;19910;-84
2021/05/18 14:15:29;;;;;;;;;;;14.00;90.10;;;;;;5107208;28;19930;-85
2021/05/18 14:17:54;;;;;;;;;;;14.00;90.20;;;;;;5106690;28;20393;-86
2021/05/18 14:20:20;;;;;;;;;;;14.00;90.30;;;;;;5107192;28;19919;-84
2021/05/18 14:22:45;;;;;;;;;;;14.00;90.50;;;;;;5107337;28;19909;-84
2021/05/18 14:25:11;;;;;;;;;;;14.00;91.20;;;;;;5123379;28;19909;-86
2021/05/18 14:27:37;;;;;;;;;;;14.00;91.10;;;;;;5123228;28;19976;-85
2021/05/18 14:30:08;;;;;;;;;;;14.00;91.20;;;;;;5122181;28;20011;-85
2021/05/18 14:32:33;;;;;;;;;;;14.10;90.50;;;;;;5122526;28;19908;-84
2021/05/18 14:34:59;;;;;;;;;;;14.40;90.40;;;;;;5121921;28;19929;-85
2021/05/18 14:37:24;;;;;;;;;;;14.60;88.00;;;;;;5122042;28;19923;-85
2021/05/18 14:45:00;;;;;;;;;;;15.00;86.40;;;;;;5106780;28;19943;-85
2021/05/18 14:47:31;;;;;;;;;;;15.10;85.00;;;;;;5106540;28;19912;-85
2021/05/18 14:55:26;;;;;;;;;;;15.10;86.40;;;;;;5106239;28;19923;-86
2021/05/18 14:57:51;;;;;;;;;;;15.40;87.10;;;;;;5123020;28;19950;-85
2021/05/18 15:00:17;;;;;;;;;;;15.70;84.60;;;;;;5121249;28;20322;-85
2021/05/18 15:02:43;;;;;;;;;;;15.70;83.10;;;;;;5120478;28;20383;-85
2021/05/18 15:05:09;;;;;;;;;;;15.90;83.70;;;;;;5120534;28;19923;-85
2021/05/18 15:07:34;;;;;;;;;;;16.00;80.60;;;;;;5118602;28;19912;-85
2021/05/18 15:10:00;;;;;;;;;;;16.10;80.90;;;;;;5119672;28;19908;-86
2021/05/18 15:12:25;;;;;;;;;;;16.10;80.50;;;;;;5120000;28;19908;-85
2021/05/18 15:14:51;;;;;;;;;;;16.30;80.30;;;;;;5120003;28;20266;-85
2021/05/18 15:17:17;;;;;;;;;;;16.30;79.90;;;;;;5121483;28;19908;-85
2021/05/18 15:19:44;;;;;;;;;;;16.00;80.00;;;;;;5120150;28;20335;-84
2021/05/18 15:22:10;;;;;;;;;;;15.70;81.00;;;;;;5121216;28;19908;-85
2021/05/18 15:24:36;;;;;;;;;;;15.50;83.10;;;;;;5119609;28;20003;-86
2021/05/18 15:27:03;;;;;;;;;;;15.20;83.20;;;;;;5120061;28;19915;-86
2021/05/18 15:29:29;;;;;;;;;;;15.00;84.00;;;;;;5119912;28;19908;-85
2021/05/18 15:31:54;;;;;;;;;;;14.60;85.30;;;;;;5103442;28;20002;-85
2021/05/18 15:34:20;;;;;;;;;;;14.50;85.70;;;;;;5105580;28;19912;-84
2021/05/18 15:36:46;;;;;;;;;;;14.40;85.70;;;;;;5123349;28;19964;-84
2021/05/18 15:39:11;;;;;;;;;;;14.40;86.80;;;;;;5121734;28;19934;-84
2021/05/18 15:41:37;;;;;;;;;;;14.30;87.20;;;;;;5108075;28;19965;-85
2021/05/18 15:44:03;;;;;;;;;;;14.30;86.80;;;;;;5123037;28;19954;-84
2021/05/18 15:46:29;;;;;;;;;;;14.20;88.20;;;;;;5107347;28;19908;-85
2021/05/18 15:48:54;;;;;;;;;;;14.20;87.00;;;;;;5122679;28;19944;-85
2021/05/18 15:51:20;;;;;;;;;;;14.20;87.00;;;;;;5124491;28;19916;-84
2021/05/18 15:53:45;;;;;;;;;;;14.10;87.90;;;;;;5124446;28;19912;-84
2021/05/18 15:56:12;;;;;;;;;;;14.10;87.60;;;;;;5124289;28;19908;-85
2021/05/18 15:58:37;;;;;;;;;;;14.10;88.00;;;;;;5124318;28;19908;-84
2021/05/18 16:01:03;;;;;;;;;;;14.20;88.20;;;;;;5125132;28;19934;-85
2021/05/18 16:03:28;;;;;;;;;;;14.40;88.60;;;;;;5125675;28;19908;-84
2021/05/18 16:05:55;;;;;;;;;;;14.50;88.20;;;;;;5126150;28;19954;-85
2021/05/18 16:10:56;;;;;;;;;;;14.60;86.60;;;;;;5112313;28;19908;-84
2021/05/18 16:13:21;;;;;;;;;;;14.60;87.50;;;;;;5128520;28;19979;-84
2021/05/18 16:15:47;;;;;;;;;;;14.70;87.50;;;;;;5113186;28;20391;-86
2021/05/18 16:18:13;;;;;;;;;;;14.70;87.90;;;;;;5128970;28;19908;-84
2021/05/18 16:20:38;;;;;;;;;;;14.70;86.60;;;;;;5128374;28;20122;-84
2021/05/18 16:23:05;;;;;;;;;;;14.70;85.70;;;;;;5112661;28;19916;-85
2021/05/18 16:25:31;;;;;;;;;;;14.70;85.70;;;;;;5127847;28;19957;-84
2021/05/18 16:27:56;;;;;;;;;;;14.60;84.10;;;;;;5127937;28;19912;-85
2021/05/18 16:30:22;;;;;;;;;;;14.60;82.60;;;;;;5112473;28;20394;-84
2021/05/18 16:32:47;;;;;;;;;;;14.50;83.20;;;;;;5128445;28;19907;-85
2021/05/18 16:35:13;;;;;;;;;;;14.50;84.50;;;;;;5128814;28;19912;-85
2021/05/18 16:37:39;;;;;;;;;;;14.50;84.40;;;;;;5128911;28;19916;-84
2021/05/18 16:40:05;;;;;;;;;;;14.40;84.60;;;;;;5128364;28;19977;-84
2021/05/18 16:42:36;;;;;;;;;;;14.40;85.20;;;;;;5128936;28;19974;-85
2021/05/18 16:45:05;;;;;;;;;;;14.40;86.40;;;;;;5129042;28;19908;-85
2021/05/18 16:47:31;;;;;;;;;;;14.30;87.10;;;;;;5128567;28;19914;-85
2021/05/18 16:49:57;;;;;;;;;;;14.30;88.10;;;;;;5128039;28;19978;-85
2021/05/18 16:52:22;;;;;;;;;;;14.30;88.90;;;;;;5126159;28;19908;-85
2021/05/18 16:54:48;;;;;;;;;;;14.20;89.80;;;;;;5126989;28;19928;-84
2021/05/18 16:57:13;;;;;;;;;;;14.20;90.10;;;;;;5127451;28;20258;-84
2021/05/18 16:59:39;;;;;;;;;;;14.10;90.40;;;;;;5125225;28;19908;-85
2021/05/18 17:02:04;;;;;;;;;;;14.10;90.40;;;;;;5125912;28;19963;-86
2021/05/18 17:04:30;;;;;;;;;;;14.10;90.40;;;;;;5126757;28;19912;-85
2021/05/18 17:06:56;;;;;;;;;;;14.10;91.00;;;;;;5126650;28;19908;-85
2021/05/18 17:09:22;;;;;;;;;;;14.20;90.90;;;;;;5126135;28;19983;-84
2021/05/18 17:11:47;;;;;;;;;;;14.20;91.40;;;;;;5126850;28;19909;-85
2021/05/18 17:14:13;;;;;;;;;;;14.20;91.70;;;;;;5127190;28;19967;-85
2021/05/18 17:16:39;;;;;;;;;;;14.20;92.00;;;;;;5125696;28;19908;-85
2021/05/18 17:19:05;;;;;;;;;;;14.20;92.50;;;;;;5126462;28;20346;-86
2021/05/18 17:21:31;;;;;;;;;;;14.20;93.00;;;;;;5127282;28;20391;-86
2021/05/18 17:23:56;;;;;;;;;;;14.20;93.60;;;;;;5126369;28;19930;-84
2021/05/18 17:26:22;;;;;;;;;;;14.20;93.80;;;;;;5110588;28;19933;-85
2021/05/18 17:28:47;;;;;;;;;;;14.20;94.60;;;;;;5126327;28;19912;-86
2021/05/18 17:31:15;;;;;;;;;;;14.20;94.90;;;;;;5125817;28;19908;-85
2021/05/18 17:33:41;;;;;;;;;;;14.20;95.00;;;;;;5111157;28;19988;-85
2021/05/18 17:36:07;;;;;;;;;;;14.20;95.10;;;;;;5127494;28;20003;-85
2021/05/18 17:38:33;;;;;;;;;;;14.30;95.00;;;;;;5100415;22;19931;-84
2021/05/18 17:41:01;;;;;;;;;;;14.20;93.40;;;;;;5057804;28;20368;-84
2021/05/18 17:43:27;;;;;;;;;;;14.20;93.10;;;;;;5073103;28;19917;-84
2021/05/18 17:45:53;;;;;;;;;;;14.20;93.30;;;;;;5073181;28;19915;-85
2021/05/18 17:48:18;;;;;;;;;;;14.20;93.20;;;;;;5072957;28;19995;-85
2021/05/18 17:50:44;;;;;;;;;;;14.10;93.20;;;;;;5076586;28;19908;-86
2021/05/18 17:53:09;;;;;;;;;;;14.10;93.50;;;;;;5072653;28;19912;-84
2021/05/18 17:55:35;;;;;;;;;;;14.20;93.60;;;;;;5072996;28;19939;-84
2021/05/18 17:58:00;;;;;;;;;;;14.20;93.60;;;;;;5072618;28;19950;-85
2021/05/18 18:00:26;;;;;;;;;;;14.20;93.20;;;;;;5072436;28;19908;-84
2021/05/18 18:02:51;;;;;;;;;;;14.20;93.00;;;;;;5073744;28;19991;-84
2021/05/18 18:05:17;;;;;;;;;;;14.20;92.50;;;;;;5072967;28;20357;-85
2021/05/18 18:07:43;;;;;;;;;;;14.10;92.70;;;;;;5072474;28;20296;-85
2021/05/18 18:10:09;;;;;;;;;;;14.10;93.30;;;;;;5072137;28;20319;-84
2021/05/18 18:12:35;;;;;;;;;;;14.10;93.60;;;;;;5072138;28;19953;-84
2021/05/18 18:15:01;;;;;;;;;;;14.10;93.80;;;;;;5072169;28;19912;-85
2021/05/18 18:17:27;;;;;;;;;;;14.00;93.80;;;;;;5074035;28;20094;-84
2021/05/18 18:19:54;;;;;;;;;;;14.00;93.80;;;;;;5071882;28;19912;-85
2021/05/18 18:22:19;;;;;;;;;;;14.00;93.70;;;;;;5072444;28;19908;-85
2021/05/18 18:24:45;;;;;;;;;;;14.00;93.80;;;;;;5071881;28;19916;-85
2021/05/18 18:27:12;;;;;;;;;;;14.10;94.00;;;;;;5071679;28;20419;-85
2021/05/18 18:29:39;;;;;;;;;;;14.00;93.90;;;;;;5070768;28;19916;-85
2021/05/18 18:32:05;;;;;;;;;;;14.00;94.00;;;;;;5071579;28;19909;-85
2021/05/18 18:34:31;;;;;;;;;;;13.90;94.40;;;;;;5073522;28;20344;-85
2021/05/18 18:36:58;;;;;;;;;;;13.80;94.70;;;;;;5073022;28;19919;-84
2021/05/18 18:39:23;;;;;;;;;;;13.80;95.00;;;;;;5071230;28;19967;-85
2021/05/18 18:41:49;;;;;;;;;;;13.80;95.20;;;;;;5073261;28;19909;-85
2021/05/18 18:44:14;;;;;;;;;;;13.80;95.60;;;;;;5071976;28;19915;-85
2021/05/18 18:46:40;;;;;;;;;;;13.70;95.90;;;;;;5071754;28;20007;-85
2021/05/18 18:49:08;;;;;;;;;;;13.70;96.10;;;;;;5072588;28;20446;-85
2021/05/18 18:51:35;;;;;;;;;;;13.70;96.00;;;;;;5073057;28;20003;-85
2021/05/18 18:54:00;;;;;;;;;;;13.60;96.30;;;;;;5072890;28;20319;-86
2021/05/18 18:56:26;;;;;;;;;;;13.60;96.50;;;;;;5072867;28;19909;-85
2021/05/18 18:58:52;;;;;;;;;;;13.60;96.80;;;;;;5072885;28;19909;-86
2021/05/18 19:01:17;;;;;;;;;;;13.50;96.80;;;;;;5071482;28;19913;-85
2021/05/18 19:06:16;;;;;;;;;;;13.50;97.00;;;;;;5073253;28;19915;-85
2021/05/18 19:14:07;;;;;;;;;;;13.40;96.70;;;;;;5077502;28;19922;-84
2021/05/18 19:16:41;;;;;;;;;;;13.40;96.30;;;;;;5076270;28;19908;-84
2021/05/18 19:19:07;;;;;;;;;;;13.30;96.10;;;;;;5074149;28;19914;-85
2021/05/18 19:21:33;;;;;;;;;;;13.30;96.50;;;;;;5076189;28;19909;-84
2021/05/18 19:23:58;;;;;;;;;;;13.30;96.60;;;;;;5076755;28;19916;-83
2021/05/18 19:26:24;;;;;;;;;;;13.20;96.80;;;;;;5074991;28;19916;-84
2021/05/18 19:28:49;;;;;;;;;;;13.20;97.10;;;;;;5075812;28;19944;-84
2021/05/18 19:31:15;;;;;;;;;;;13.10;97.20;;;;;;5075086;28;19908;-83
2021/05/18 19:33:43;;;;;;;;;;;13.10;97.50;;;;;;5073759;28;20296;-83
2021/05/18 19:41:33;;;;;;;;;;;12.90;98.20;;;;;;5078091;28;19915;-83
2021/05/18 19:51:54;;;;;;;;;;;12.70;98.60;;;;;;5082407;28;19931;-85
2021/05/18 19:54:32;;;;;;;;;;;12.70;98.50;;;;;;5081616;28;19912;-83
2021/05/18 20:16:44;;;;;;;;;;;12.30;99.20;;;;;;5081332;28;20284;-85
2021/05/18 20:21:36;;;;;;;;;;;12.30;99.10;;;;;;5081428;28;19916;-83